createdAt,value
2022-11-10T00:04:11.195Z,98851.02
2022-11-10T00:09:14.761Z,98846.60
2022-11-10T00:14:36.273Z,98847.77
2022-11-10T00:19:39.809Z,98852.22
2022-11-10T00:24:44.968Z,98851.54
2022-11-10T00:29:48.519Z,98852.97
2022-11-10T00:34:52.023Z,98851.63
2022-11-10T00:39:55.587Z,98851.17
2022-11-10T00:44:59.107Z,98855.21
2022-11-10T00:50:02.584Z,98844.17
2022-11-10T00:55:06.097Z,98854.89
2022-11-10T01:00:09.594Z,98853.17
2022-11-10T01:05:13.098Z,98854.71
2022-11-10T01:10:16.608Z,98858.19
2022-11-10T01:15:24.491Z,98860.59
2022-11-10T01:20:30.984Z,98871.78
2022-11-10T01:25:34.471Z,98873.55
2022-11-10T01:30:38.112Z,98875.91
2022-11-10T01:35:41.616Z,98887.14
2022-11-10T01:40:45.146Z,98886.50
2022-11-10T01:45:48.734Z,98887.66
2022-11-10T01:50:52.238Z,98897.69
2022-11-10T01:55:55.722Z,98895.33
2022-11-10T02:00:59.214Z,98899.86
2022-11-10T02:06:02.705Z,98902.97
2022-11-10T02:11:06.195Z,98909.19
2022-11-10T02:16:09.682Z,98909.77
2022-11-10T02:21:13.363Z,98907.79
2022-11-10T02:26:16.830Z,98911.67
2022-11-10T02:31:20.290Z,98918.76
2022-11-10T02:36:23.745Z,98925.48
2022-11-10T02:41:27.196Z,98919.50
2022-11-10T02:46:30.692Z,98930.32
2022-11-10T02:51:34.153Z,98931.39
2022-11-10T02:56:37.647Z,98932.98
2022-11-10T03:01:41.253Z,98935.20
2022-11-10T03:06:44.865Z,98935.69
2022-11-10T03:11:48.437Z,98935.59
2022-11-10T03:16:51.888Z,98945.79
2022-11-10T03:21:55.333Z,98957.55
2022-11-10T03:26:58.787Z,98957.92
2022-11-10T03:32:02.258Z,98960.54
2022-11-10T03:37:05.792Z,98964.17
2022-11-10T03:42:09.271Z,98965.91
2022-11-10T03:47:12.760Z,98965.54
2022-11-10T03:52:16.306Z,98967.21
2022-11-10T03:57:19.799Z,98968.42
2022-11-10T04:02:23.285Z,98975.86
2022-11-10T04:07:44.409Z,98977.59
2022-11-10T04:13:05.851Z,98981.41
2022-11-10T04:18:29.823Z,98981.25
2022-11-10T04:23:35.026Z,98985.23
2022-11-10T04:28:38.618Z,98991.98
2022-11-10T04:33:42.390Z,99000.04
2022-11-10T04:38:45.865Z,99007.58
2022-11-10T04:43:49.361Z,99013.25
2022-11-10T04:48:52.855Z,99019.34
2022-11-10T04:53:56.306Z,99022.14
2022-11-10T04:58:59.764Z,99022.58
2022-11-10T05:04:05.712Z,99031.90
2022-11-10T05:09:09.223Z,99034.36
2022-11-10T05:14:12.793Z,99030.81
2022-11-10T05:19:16.279Z,99036.05
2022-11-10T05:24:19.730Z,99039.17
2022-11-10T05:29:23.196Z,99046.28
2022-11-10T05:34:26.656Z,99056.66
2022-11-10T05:39:30.119Z,99055.23
2022-11-10T05:44:33.638Z,99062.36
2022-11-10T05:49:37.150Z,99073.63
2022-11-10T05:54:40.645Z,99080.93
2022-11-10T05:59:44.137Z,99093.91
2022-11-10T06:04:47.740Z,99105.34
2022-11-10T06:09:51.323Z,99115.81
2022-11-10T06:14:54.857Z,99128.34
2022-11-10T06:19:58.413Z,99130.66
2022-11-10T06:25:01.889Z,99136.94
2022-11-10T06:30:05.444Z,99145.10
2022-11-10T06:35:08.916Z,99148.17
2022-11-10T06:40:12.896Z,99157.84
2022-11-10T06:45:16.415Z,99167.25
2022-11-10T06:50:19.965Z,99169.75
2022-11-10T06:55:23.559Z,99177.16
2022-11-10T07:00:27.250Z,99183.95
2022-11-10T07:05:30.845Z,99196.95
2022-11-10T07:10:34.411Z,99204.67
2022-11-10T07:15:37.944Z,99210.96
2022-11-10T07:20:41.461Z,99218.39
2022-11-10T07:25:44.958Z,99225.33
2022-11-10T07:30:48.481Z,99236.02
2022-11-10T07:35:51.950Z,99244.35
2022-11-10T07:40:55.430Z,99233.37
2022-11-10T07:45:59.826Z,99237.27
2022-11-10T07:51:03.452Z,99265.55
2022-11-10T07:56:06.918Z,99272.17
2022-11-10T08:01:10.405Z,99280.00
2022-11-10T08:06:13.961Z,99289.05
2022-11-10T08:11:17.485Z,99291.88
2022-11-10T08:16:21.102Z,99296.34
2022-11-10T08:21:24.562Z,99294.52
2022-11-10T08:26:28.054Z,99303.55
2022-11-10T08:31:31.568Z,99308.11
2022-11-10T08:36:35.166Z,99314.19
2022-11-10T08:41:38.662Z,99322.52
2022-11-10T08:46:44.395Z,99332.11
2022-11-10T08:51:47.923Z,99335.21
2022-11-10T08:56:51.379Z,99346.49
2022-11-10T09:01:54.839Z,99355.27
2022-11-10T09:06:58.389Z,99360.67
2022-11-10T09:12:01.925Z,99371.00
2022-11-10T09:17:05.407Z,99376.67
2022-11-10T09:22:09.712Z,99380.14
2022-11-10T09:27:13.306Z,99390.79
2022-11-10T09:32:16.848Z,99395.62
2022-11-10T09:37:20.366Z,99394.92
2022-11-10T09:42:23.815Z,99391.29
2022-11-10T09:47:55.720Z,99401.72
2022-11-10T09:52:50.916Z,99400.59
2022-11-10T09:57:54.344Z,99405.69
2022-11-10T10:02:57.937Z,99418.63
2022-11-10T10:08:01.456Z,99426.15
2022-11-10T10:13:04.987Z,99438.82
2022-11-10T10:18:08.651Z,99443.27
2022-11-10T10:23:12.126Z,99445.38
2022-11-10T10:28:15.607Z,99446.09
2022-11-10T10:33:19.048Z,99454.95
2022-11-10T10:38:22.879Z,99460.27
2022-11-10T10:43:26.795Z,99457.70
2022-11-10T10:48:30.261Z,99459.02
2022-11-10T10:53:33.725Z,99463.77
2022-11-10T10:58:37.264Z,99463.43
2022-11-10T11:03:40.751Z,99469.52
2022-11-10T11:08:44.259Z,99474.63
2022-11-10T11:13:47.845Z,99477.29
2022-11-10T11:18:51.356Z,99481.77
2022-11-10T11:23:54.944Z,99484.29
2022-11-10T11:28:58.438Z,99489.67
2022-11-10T11:34:02.182Z,99491.08
2022-11-10T11:39:05.676Z,99487.09
2022-11-10T11:44:09.247Z,99495.79
2022-11-10T11:49:12.783Z,99496.03
2022-11-10T11:54:16.450Z,99494.67
2022-11-10T11:59:20.524Z,99496.63
2022-11-10T12:04:24.061Z,99501.14
2022-11-10T12:09:27.914Z,99499.58
2022-11-10T12:14:31.468Z,99503.70
2022-11-10T12:19:34.982Z,99505.92
2022-11-10T12:24:38.577Z,99500.33
2022-11-10T12:29:42.072Z,99499.58
2022-11-10T12:34:45.665Z,99502.98
2022-11-10T12:39:49.158Z,99506.95
2022-11-10T12:44:52.635Z,99518.31
2022-11-10T12:49:56.172Z,99527.20
2022-11-10T12:54:59.687Z,99524.07
2022-11-10T13:00:03.206Z,99528.16
2022-11-10T13:05:06.685Z,99538.46
2022-11-10T13:10:10.184Z,99539.96
2022-11-10T13:15:13.813Z,99542.39
2022-11-10T13:20:31.010Z,99547.86
2022-11-10T13:25:35.271Z,99552.03
2022-11-10T13:30:38.801Z,99558.18
2022-11-10T13:35:42.289Z,99560.60
2022-11-10T13:40:45.875Z,99565.70
2022-11-10T13:45:49.577Z,99561.98
2022-11-10T13:50:54.150Z,99571.31
2022-11-10T13:55:57.645Z,99576.30
2022-11-10T14:01:01.171Z,99587.46
2022-11-10T14:06:04.767Z,99597.73
2022-11-10T14:11:08.251Z,99605.86
2022-11-10T14:16:12.237Z,99609.69
2022-11-10T14:21:15.722Z,99611.06
2022-11-10T14:26:19.278Z,99616.59
2022-11-10T14:31:22.935Z,99619.23
2022-11-10T14:36:26.425Z,99632.46
2022-11-10T14:41:29.890Z,99640.42
2022-11-10T14:46:33.340Z,99646.98
2022-11-10T14:51:36.809Z,99659.66
2022-11-10T14:56:42.537Z,99661.13
2022-11-10T15:01:45.969Z,99664.25
2022-11-10T15:06:49.718Z,99667.98
2022-11-10T15:11:53.248Z,99669.61
2022-11-10T15:16:56.860Z,99673.05
2022-11-10T15:22:00.488Z,99680.35
2022-11-10T15:27:03.959Z,99686.23
2022-11-10T15:32:07.447Z,99692.59
2022-11-10T15:37:11.116Z,99700.58
2022-11-10T15:42:14.654Z,99708.13
2022-11-10T15:47:19.394Z,99703.70
2022-11-10T15:52:22.931Z,99717.45
2022-11-10T15:57:26.410Z,99726.21
2022-11-10T16:02:29.884Z,99734.91
2022-11-10T16:07:33.361Z,99745.35
2022-11-10T16:12:37.062Z,99745.88
2022-11-10T16:17:40.568Z,99753.41
2022-11-10T16:22:44.056Z,99760.67
2022-11-10T16:27:47.563Z,99763.71
2022-11-10T16:32:51.087Z,99766.31
2022-11-10T16:37:54.701Z,99775.58
2022-11-10T16:42:58.169Z,99784.02
2022-11-10T16:48:01.682Z,99791.20
2022-11-10T16:53:05.282Z,99801.91
2022-11-10T16:58:08.822Z,99820.48
2022-11-10T17:03:12.419Z,99838.73
2022-11-10T17:08:16.137Z,99855.81
2022-11-10T17:13:19.620Z,99855.70
2022-11-10T17:18:24.140Z,99870.66
2022-11-10T17:23:28.183Z,99880.60
2022-11-10T17:28:32.045Z,99885.09
2022-11-10T17:33:35.598Z,99888.29
2022-11-10T17:38:39.078Z,99892.63
2022-11-10T17:43:45.565Z,99900.45
2022-11-10T17:48:49.921Z,99901.35
2022-11-10T17:53:53.650Z,99902.79
2022-11-10T17:58:57.117Z,99912.73
2022-11-10T18:04:00.578Z,99914.08
2022-11-10T18:09:04.123Z,99920.61
2022-11-10T18:14:07.592Z,99926.14
2022-11-10T18:19:11.275Z,99920.81
2022-11-10T18:24:14.785Z,99915.84
2022-11-10T18:29:18.566Z,99922.30
2022-11-10T18:34:22.159Z,99923.92
2022-11-10T18:39:25.837Z,99925.84
2022-11-10T18:44:29.758Z,99927.59
2022-11-10T18:49:33.792Z,99933.37
2022-11-10T18:54:37.272Z,99936.50
2022-11-10T18:59:40.771Z,99939.41
2022-11-10T19:04:44.260Z,99946.09
2022-11-10T19:09:47.733Z,99946.70
2022-11-10T19:14:51.214Z,99945.81
2022-11-10T19:19:56.718Z,99954.93
2022-11-10T19:25:08.251Z,99962.88
2022-11-10T19:30:12.550Z,99964.33
2022-11-10T19:35:16.090Z,99974.58
2022-11-10T19:40:19.733Z,99980.05
2022-11-10T19:45:23.298Z,99992.86
2022-11-10T19:50:26.838Z,100005.42
2022-11-10T19:55:30.347Z,100012.52
2022-11-10T20:00:33.836Z,100015.77
2022-11-10T20:05:37.340Z,100026.00
2022-11-10T20:10:40.805Z,100023.27
2022-11-10T20:15:44.330Z,100029.30
2022-11-10T20:20:47.897Z,100041.62
2022-11-10T20:25:54.622Z,100046.09
2022-11-10T20:30:59.578Z,100053.95
2022-11-10T20:36:03.050Z,100046.34
2022-11-10T20:41:06.698Z,100033.59
2022-11-10T20:46:13.631Z,100048.11
2022-11-10T20:51:17.364Z,100044.91
2022-11-10T20:56:24.115Z,100040.67
2022-11-10T21:01:32.609Z,100040.36
2022-11-10T21:06:36.243Z,100045.45
2022-11-10T21:11:57.784Z,100041.64
2022-11-10T21:17:01.321Z,100042.41
2022-11-10T21:22:04.770Z,100049.31
2022-11-10T21:27:08.235Z,100052.52
2022-11-10T21:32:11.731Z,100051.36
2022-11-10T21:37:15.190Z,100056.29
2022-11-10T21:42:20.862Z,100064.05
2022-11-10T21:47:24.319Z,100063.95
2022-11-10T21:52:27.772Z,100070.10
2022-11-10T21:57:31.294Z,100066.55
2022-11-10T22:02:35.840Z,100059.53
2022-11-10T22:07:39.432Z,100062.52
2022-11-10T22:13:06.040Z,100067.33
2022-11-10T22:18:27.076Z,100072.90
2022-11-10T22:23:44.491Z,100073.64
2022-11-10T22:28:48.080Z,100071.73
2022-11-10T22:33:51.528Z,100074.77
2022-11-10T22:38:59.097Z,100071.83
2022-11-10T22:44:06.360Z,100071.30
2022-11-10T22:49:10.191Z,100065.15
2022-11-10T22:54:13.673Z,100053.66
2022-11-10T22:59:17.154Z,100052.27
2022-11-10T23:04:20.643Z,100052.54
2022-11-10T23:09:24.655Z,100061.38
2022-11-10T23:14:28.117Z,100063.89
2022-11-10T23:19:31.593Z,100073.63
2022-11-10T23:24:35.107Z,100077.59
2022-11-10T23:29:38.577Z,100077.96
2022-11-10T23:34:42.056Z,100089.67
2022-11-10T23:39:45.508Z,100090.42
2022-11-10T23:44:49.004Z,100091.73
2022-11-10T23:49:52.491Z,100099.04
2022-11-10T23:54:55.972Z,100104.36
2022-11-10T23:59:59.518Z,100108.23
